sensor_id;sensor_type;location;lat;lon;timestamp;P1;durP1;ratioP1;P2;durP2;ratioP2
6185;SDS011;3126;52.738;8.316;2023-04-24T00:00:14;2.03;;;1.85;;
6185;SDS011;3126;52.738;8.316;2023-04-24T00:05:16;1.45;;;1.42;;
6185;SDS011;3126;52.738;8.316;2023-04-24T00:10:17;2.00;;;1.90;;
6185;SDS011;3126;52.738;8.316;2023-04-24T00:15:18;1.05;;;1.05;;
6185;SDS011;3126;52.738;8.316;2023-04-24T00:20:19;2.03;;;1.85;;
6185;SDS011;3126;52.738;8.316;2023-04-24T00:25:20;1.83;;;1.60;;
6185;SDS011;3126;52.738;8.316;2023-04-24T00:30:21;2.40;;;2.03;;
6185;SDS011;3126;52.738;8.316;2023-04-24T00:35:22;2.38;;;2.28;;
6185;SDS011;3126;52.738;8.316;2023-04-24T00:40:23;2.65;;;2.45;;
6185;SDS011;3126;52.738;8.316;2023-04-24T00:45:24;2.80;;;2.60;;
6185;SDS011;3126;52.738;8.316;2023-04-24T00:50:25;1.73;;;1.63;;
6185;SDS011;3126;52.738;8.316;2023-04-24T00:55:26;2.53;;;2.40;;
6185;SDS011;3126;52.738;8.316;2023-04-24T01:00:27;2.70;;;2.00;;
6185;SDS011;3126;52.738;8.316;2023-04-24T01:05:28;1.85;;;1.75;;
6185;SDS011;3126;52.738;8.316;2023-04-24T01:10:29;2.05;;;1.95;;
6185;SDS011;3126;52.738;8.316;2023-04-24T01:15:32;2.78;;;2.60;;
6185;SDS011;3126;52.738;8.316;2023-04-24T01:20:33;2.47;;;2.38;;
6185;SDS011;3126;52.738;8.316;2023-04-24T01:25:34;1.83;;;1.73;;
6185;SDS011;3126;52.738;8.316;2023-04-24T01:30:37;2.22;;;2.13;;
6185;SDS011;3126;52.738;8.316;2023-04-24T01:35:38;2.42;;;2.25;;
6185;SDS011;3126;52.738;8.316;2023-04-24T01:40:39;3.05;;;2.00;;
6185;SDS011;3126;52.738;8.316;2023-04-24T01:45:40;2.80;;;2.60;;
6185;SDS011;3126;52.738;8.316;2023-04-24T01:50:41;4.25;;;3.95;;
6185;SDS011;3126;52.738;8.316;2023-04-24T01:55:42;5.15;;;4.78;;
6185;SDS011;3126;52.738;8.316;2023-04-24T02:06:24;5.00;;;4.60;;
6185;SDS011;3126;52.738;8.316;2023-04-24T02:11:25;6.00;;;5.45;;
6185;SDS011;3126;52.738;8.316;2023-04-24T02:16:27;5.63;;;5.13;;
6185;SDS011;3126;52.738;8.316;2023-04-24T02:21:32;5.45;;;4.95;;
6185;SDS011;3126;52.738;8.316;2023-04-24T02:26:33;5.93;;;5.43;;
6185;SDS011;3126;52.738;8.316;2023-04-24T02:31:34;5.22;;;4.72;;
6185;SDS011;3126;52.738;8.316;2023-04-24T02:36:35;5.93;;;5.43;;
6185;SDS011;3126;52.738;8.316;2023-04-24T02:41:36;6.45;;;5.03;;
6185;SDS011;3126;52.738;8.316;2023-04-24T02:46:37;5.75;;;4.93;;
6185;SDS011;3126;52.738;8.316;2023-04-24T02:51:38;6.38;;;5.75;;
6185;SDS011;3126;52.738;8.316;2023-04-24T02:56:41;5.10;;;4.60;;
6185;SDS011;3126;52.738;8.316;2023-04-24T03:01:42;6.32;;;5.78;;
6185;SDS011;3126;52.738;8.316;2023-04-24T03:06:43;5.13;;;4.68;;
6185;SDS011;3126;52.738;8.316;2023-04-24T03:11:44;5.60;;;5.10;;
6185;SDS011;3126;52.738;8.316;2023-04-24T03:16:44;5.85;;;5.28;;
6185;SDS011;3126;52.738;8.316;2023-04-24T03:21:45;5.70;;;5.20;;
6185;SDS011;3126;52.738;8.316;2023-04-24T03:26:46;8.27;;;5.00;;
6185;SDS011;3126;52.738;8.316;2023-04-24T03:31:47;4.93;;;4.55;;
6185;SDS011;3126;52.738;8.316;2023-04-24T03:36:48;5.53;;;5.03;;
6185;SDS011;3126;52.738;8.316;2023-04-24T03:41:49;4.90;;;4.18;;
6185;SDS011;3126;52.738;8.316;2023-04-24T03:46:50;4.30;;;4.00;;
6185;SDS011;3126;52.738;8.316;2023-04-24T03:51:51;4.30;;;3.72;;
6185;SDS011;3126;52.738;8.316;2023-04-24T03:56:52;3.80;;;3.50;;
6185;SDS011;3126;52.738;8.316;2023-04-24T04:01:53;3.00;;;2.78;;
6185;SDS011;3126;52.738;8.316;2023-04-24T04:06:54;3.17;;;2.88;;
6185;SDS011;3126;52.738;8.316;2023-04-24T04:11:55;3.70;;;3.40;;
6185;SDS011;3126;52.738;8.316;2023-04-24T04:16:56;4.82;;;3.80;;
6185;SDS011;3126;52.738;8.316;2023-04-24T04:21:57;5.50;;;3.80;;
6185;SDS011;3126;52.738;8.316;2023-04-24T04:26:59;3.95;;;3.58;;
6185;SDS011;3126;52.738;8.316;2023-04-24T04:32:00;4.47;;;4.05;;
6185;SDS011;3126;52.738;8.316;2023-04-24T04:37:01;4.50;;;3.97;;
6185;SDS011;3126;52.738;8.316;2023-04-24T04:42:02;4.88;;;4.28;;
6185;SDS011;3126;52.738;8.316;2023-04-24T04:47:03;5.88;;;4.72;;
6185;SDS011;3126;52.738;8.316;2023-04-24T04:52:05;6.28;;;5.40;;
6185;SDS011;3126;52.738;8.316;2023-04-24T04:57:06;5.38;;;4.88;;
6185;SDS011;3126;52.738;8.316;2023-04-24T05:02:08;6.78;;;5.85;;
6185;SDS011;3126;52.738;8.316;2023-04-24T05:07:09;7.65;;;6.28;;
6185;SDS011;3126;52.738;8.316;2023-04-24T05:12:10;8.15;;;6.40;;
6185;SDS011;3126;52.738;8.316;2023-04-24T05:17:11;8.15;;;6.60;;
6185;SDS011;3126;52.738;8.316;2023-04-24T05:22:12;7.30;;;6.50;;
6185;SDS011;3126;52.738;8.316;2023-04-24T05:27:13;8.52;;;7.63;;
6185;SDS011;3126;52.738;8.316;2023-04-24T05:32:13;9.38;;;8.30;;
6185;SDS011;3126;52.738;8.316;2023-04-24T05:37:15;11.18;;;8.95;;
6185;SDS011;3126;52.738;8.316;2023-04-24T05:42:15;10.57;;;9.48;;
6185;SDS011;3126;52.738;8.316;2023-04-24T05:47:16;10.90;;;8.63;;
6185;SDS011;3126;52.738;8.316;2023-04-24T05:52:17;12.15;;;9.07;;
6185;SDS011;3126;52.738;8.316;2023-04-24T05:57:18;12.02;;;9.10;;
6185;SDS011;3126;52.738;8.316;2023-04-24T06:02:19;13.57;;;10.50;;
6185;SDS011;3126;52.738;8.316;2023-04-24T06:07:20;13.88;;;9.73;;
6185;SDS011;3126;52.738;8.316;2023-04-24T06:12:21;12.10;;;8.95;;
6185;SDS011;3126;52.738;8.316;2023-04-24T06:17:22;13.68;;;10.40;;
6185;SDS011;3126;52.738;8.316;2023-04-24T06:22:23;11.98;;;9.52;;
6185;SDS011;3126;52.738;8.316;2023-04-24T06:27:24;12.52;;;9.25;;
6185;SDS011;3126;52.738;8.316;2023-04-24T06:32:25;11.38;;;9.23;;
6185;SDS011;3126;52.738;8.316;2023-04-24T06:37:27;15.13;;;9.50;;
6185;SDS011;3126;52.738;8.316;2023-04-24T06:42:28;11.20;;;8.02;;
6185;SDS011;3126;52.738;8.316;2023-04-24T06:47:29;9.88;;;8.48;;
6185;SDS011;3126;52.738;8.316;2023-04-24T06:52:30;10.10;;;8.68;;
6185;SDS011;3126;52.738;8.316;2023-04-24T06:57:35;10.32;;;6.88;;
6185;SDS011;3126;52.738;8.316;2023-04-24T07:02:36;9.98;;;7.43;;
6185;SDS011;3126;52.738;8.316;2023-04-24T07:07:37;11.45;;;7.07;;
6185;SDS011;3126;52.738;8.316;2023-04-24T07:12:40;10.40;;;7.93;;
6185;SDS011;3126;52.738;8.316;2023-04-24T07:17:41;11.48;;;8.95;;
6185;SDS011;3126;52.738;8.316;2023-04-24T07:22:44;10.63;;;8.18;;
6185;SDS011;3126;52.738;8.316;2023-04-24T07:27:45;9.65;;;8.63;;
6185;SDS011;3126;52.738;8.316;2023-04-24T07:32:46;11.40;;;9.48;;
6185;SDS011;3126;52.738;8.316;2023-04-24T07:37:47;12.77;;;9.35;;
6185;SDS011;3126;52.738;8.316;2023-04-24T07:42:48;12.30;;;8.52;;
6185;SDS011;3126;52.738;8.316;2023-04-24T07:47:50;11.77;;;7.78;;
6185;SDS011;3126;52.738;8.316;2023-04-24T07:52:51;11.68;;;8.70;;
6185;SDS011;3126;52.738;8.316;2023-04-24T07:57:52;14.88;;;9.02;;
6185;SDS011;3126;52.738;8.316;2023-04-24T08:02:53;15.77;;;10.10;;
6185;SDS011;3126;52.738;8.316;2023-04-24T08:07:54;10.68;;;8.85;;
6185;SDS011;3126;52.738;8.316;2023-04-24T08:12:55;10.35;;;8.75;;
6185;SDS011;3126;52.738;8.316;2023-04-24T08:17:56;11.02;;;8.98;;
6185;SDS011;3126;52.738;8.316;2023-04-24T08:22:57;13.23;;;8.43;;
6185;SDS011;3126;52.738;8.316;2023-04-24T08:27:58;9.07;;;7.65;;
6185;SDS011;3126;52.738;8.316;2023-04-24T08:32:59;17.05;;;12.07;;
6185;SDS011;3126;52.738;8.316;2023-04-24T08:38:00;16.40;;;11.73;;
6185;SDS011;3126;52.738;8.316;2023-04-24T08:43:01;16.27;;;11.40;;
6185;SDS011;3126;52.738;8.316;2023-04-24T08:48:04;15.88;;;12.35;;
6185;SDS011;3126;52.738;8.316;2023-04-24T08:53:05;17.80;;;12.60;;
6185;SDS011;3126;52.738;8.316;2023-04-24T08:58:07;14.35;;;11.07;;
6185;SDS011;3126;52.738;8.316;2023-04-24T09:03:08;12.63;;;9.88;;
6185;SDS011;3126;52.738;8.316;2023-04-24T09:08:10;12.65;;;8.50;;
6185;SDS011;3126;52.738;8.316;2023-04-24T09:13:13;9.88;;;8.85;;
6185;SDS011;3126;52.738;8.316;2023-04-24T09:18:15;8.48;;;7.57;;
6185;SDS011;3126;52.738;8.316;2023-04-24T09:23:18;8.27;;;7.43;;
6185;SDS011;3126;52.738;8.316;2023-04-24T09:28:22;10.52;;;8.02;;
6185;SDS011;3126;52.738;8.316;2023-04-24T09:33:25;10.13;;;8.10;;
6185;SDS011;3126;52.738;8.316;2023-04-24T09:38:36;9.25;;;7.60;;
6185;SDS011;3126;52.738;8.316;2023-04-24T09:43:37;7.97;;;7.18;;
6185;SDS011;3126;52.738;8.316;2023-04-24T09:48:38;9.07;;;8.27;;
6185;SDS011;3126;52.738;8.316;2023-04-24T09:53:39;10.32;;;8.70;;
6185;SDS011;3126;52.738;8.316;2023-04-24T09:58:40;8.68;;;7.88;;
6185;SDS011;3126;52.738;8.316;2023-04-24T10:03:41;7.40;;;6.60;;
6185;SDS011;3126;52.738;8.316;2023-04-24T10:08:42;7.50;;;6.80;;
6185;SDS011;3126;52.738;8.316;2023-04-24T10:13:46;7.43;;;6.68;;
6185;SDS011;3126;52.738;8.316;2023-04-24T10:18:47;8.35;;;7.43;;
6185;SDS011;3126;52.738;8.316;2023-04-24T10:23:48;8.02;;;7.30;;
6185;SDS011;3126;52.738;8.316;2023-04-24T10:28:50;7.25;;;6.55;;
6185;SDS011;3126;52.738;8.316;2023-04-24T10:33:51;6.45;;;5.85;;
6185;SDS011;3126;52.738;8.316;2023-04-24T10:38:52;6.30;;;5.70;;
6185;SDS011;3126;52.738;8.316;2023-04-24T10:49:06;5.75;;;4.50;;
6185;SDS011;3126;52.738;8.316;2023-04-24T10:59:25;4.95;;;4.43;;
6185;SDS011;3126;52.738;8.316;2023-04-24T11:04:29;4.70;;;4.30;;
6185;SDS011;3126;52.738;8.316;2023-04-24T11:09:31;6.15;;;4.97;;
6185;SDS011;3126;52.738;8.316;2023-04-24T11:19:52;3.20;;;2.60;;
6185;SDS011;3126;52.738;8.316;2023-04-24T11:25:01;2.55;;;2.25;;
6185;SDS011;3126;52.738;8.316;2023-04-24T11:30:03;2.10;;;1.77;;
6185;SDS011;3126;52.738;8.316;2023-04-24T11:35:05;1.73;;;1.20;;
6185;SDS011;3126;52.738;8.316;2023-04-24T11:40:08;1.95;;;1.75;;
6185;SDS011;3126;52.738;8.316;2023-04-24T11:45:13;2.28;;;2.00;;
6185;SDS011;3126;52.738;8.316;2023-04-24T11:50:15;4.03;;;2.30;;
6185;SDS011;3126;52.738;8.316;2023-04-24T12:00:18;7.82;;;3.15;;
6185;SDS011;3126;52.738;8.316;2023-04-24T12:05:24;5.38;;;3.50;;
6185;SDS011;3126;52.738;8.316;2023-04-24T12:10:26;8.75;;;4.22;;
6185;SDS011;3126;52.738;8.316;2023-04-24T12:15:28;16.35;;;7.03;;
6185;SDS011;3126;52.738;8.316;2023-04-24T12:20:30;9.98;;;5.68;;
6185;SDS011;3126;52.738;8.316;2023-04-24T12:25:31;8.13;;;6.47;;
6185;SDS011;3126;52.738;8.316;2023-04-24T12:30:33;6.80;;;5.32;;
6185;SDS011;3126;52.738;8.316;2023-04-24T12:35:35;10.80;;;6.82;;
6185;SDS011;3126;52.738;8.316;2023-04-24T12:40:36;5.93;;;3.95;;
6185;SDS011;3126;52.738;8.316;2023-04-24T12:45:37;10.27;;;5.15;;
6185;SDS011;3126;52.738;8.316;2023-04-24T12:50:38;4.90;;;4.10;;
6185;SDS011;3126;52.738;8.316;2023-04-24T12:55:39;9.52;;;5.15;;
6185;SDS011;3126;52.738;8.316;2023-04-24T13:00:40;5.97;;;4.93;;
6185;SDS011;3126;52.738;8.316;2023-04-24T13:05:43;6.28;;;4.55;;
6185;SDS011;3126;52.738;8.316;2023-04-24T13:10:44;6.47;;;3.67;;
6185;SDS011;3126;52.738;8.316;2023-04-24T13:15:45;8.57;;;5.78;;
6185;SDS011;3126;52.738;8.316;2023-04-24T13:20:46;9.70;;;5.63;;
6185;SDS011;3126;52.738;8.316;2023-04-24T13:25:47;8.10;;;5.28;;
6185;SDS011;3126;52.738;8.316;2023-04-24T13:30:48;9.45;;;6.43;;
6185;SDS011;3126;52.738;8.316;2023-04-24T13:35:49;7.18;;;5.15;;
6185;SDS011;3126;52.738;8.316;2023-04-24T13:40:50;13.77;;;6.40;;
6185;SDS011;3126;52.738;8.316;2023-04-24T13:45:51;9.77;;;6.50;;
6185;SDS011;3126;52.738;8.316;2023-04-24T13:50:52;12.25;;;6.53;;
6185;SDS011;3126;52.738;8.316;2023-04-24T13:55:53;10.30;;;5.65;;
6185;SDS011;3126;52.738;8.316;2023-04-24T14:00:54;10.73;;;3.50;;
6185;SDS011;3126;52.738;8.316;2023-04-24T14:05:55;8.10;;;4.45;;
6185;SDS011;3126;52.738;8.316;2023-04-24T14:10:57;8.27;;;4.38;;
6185;SDS011;3126;52.738;8.316;2023-04-24T14:15:58;8.25;;;4.53;;
6185;SDS011;3126;52.738;8.316;2023-04-24T14:20:59;7.53;;;3.80;;
6185;SDS011;3126;52.738;8.316;2023-04-24T14:26:01;3.85;;;3.00;;
6185;SDS011;3126;52.738;8.316;2023-04-24T14:31:02;9.23;;;3.00;;
6185;SDS011;3126;52.738;8.316;2023-04-24T14:36:03;9.05;;;3.45;;
6185;SDS011;3126;52.738;8.316;2023-04-24T14:41:05;4.80;;;3.33;;
6185;SDS011;3126;52.738;8.316;2023-04-24T14:46:09;6.22;;;3.25;;
6185;SDS011;3126;52.738;8.316;2023-04-24T14:51:10;10.45;;;3.05;;
6185;SDS011;3126;52.738;8.316;2023-04-24T14:56:11;4.10;;;2.03;;
6185;SDS011;3126;52.738;8.316;2023-04-24T15:01:12;4.53;;;2.53;;
6185;SDS011;3126;52.738;8.316;2023-04-24T15:06:12;6.03;;;2.47;;
6185;SDS011;3126;52.738;8.316;2023-04-24T15:11:13;3.45;;;1.85;;
6185;SDS011;3126;52.738;8.316;2023-04-24T15:16:14;5.13;;;1.95;;
6185;SDS011;3126;52.738;8.316;2023-04-24T15:21:15;5.55;;;2.28;;
6185;SDS011;3126;52.738;8.316;2023-04-24T15:26:17;5.80;;;1.13;;
6185;SDS011;3126;52.738;8.316;2023-04-24T15:31:18;3.45;;;1.60;;
6185;SDS011;3126;52.738;8.316;2023-04-24T15:36:19;3.20;;;1.75;;
6185;SDS011;3126;52.738;8.316;2023-04-24T15:41:21;2.65;;;2.47;;
6185;SDS011;3126;52.738;8.316;2023-04-24T15:46:22;6.03;;;2.05;;
6185;SDS011;3126;52.738;8.316;2023-04-24T15:51:23;3.67;;;1.60;;
6185;SDS011;3126;52.738;8.316;2023-04-24T15:56:23;5.20;;;1.60;;
6185;SDS011;3126;52.738;8.316;2023-04-24T16:01:25;2.65;;;1.77;;
6185;SDS011;3126;52.738;8.316;2023-04-24T16:06:25;2.70;;;1.23;;
6185;SDS011;3126;52.738;8.316;2023-04-24T16:11:26;3.17;;;0.70;;
6185;SDS011;3126;52.738;8.316;2023-04-24T16:16:27;1.55;;;1.45;;
6185;SDS011;3126;52.738;8.316;2023-04-24T16:21:28;5.22;;;1.63;;
6185;SDS011;3126;52.738;8.316;2023-04-24T16:26:30;5.47;;;1.60;;
6185;SDS011;3126;52.738;8.316;2023-04-24T16:31:31;3.40;;;1.60;;
6185;SDS011;3126;52.738;8.316;2023-04-24T16:36:33;5.38;;;2.92;;
6185;SDS011;3126;52.738;8.316;2023-04-24T16:41:34;3.90;;;2.10;;
6185;SDS011;3126;52.738;8.316;2023-04-24T16:46:35;6.97;;;3.30;;
6185;SDS011;3126;52.738;8.316;2023-04-24T16:51:36;5.40;;;2.42;;
6185;SDS011;3126;52.738;8.316;2023-04-24T16:56:37;4.97;;;2.28;;
6185;SDS011;3126;52.738;8.316;2023-04-24T17:01:38;4.15;;;1.60;;
6185;SDS011;3126;52.738;8.316;2023-04-24T17:06:39;4.43;;;1.60;;
6185;SDS011;3126;52.738;8.316;2023-04-24T17:11:40;4.45;;;2.05;;
6185;SDS011;3126;52.738;8.316;2023-04-24T17:16:41;3.65;;;1.88;;
6185;SDS011;3126;52.738;8.316;2023-04-24T17:21:44;3.30;;;1.95;;
6185;SDS011;3126;52.738;8.316;2023-04-24T17:26:45;6.63;;;2.20;;
6185;SDS011;3126;52.738;8.316;2023-04-24T17:31:46;4.95;;;1.85;;
6185;SDS011;3126;52.738;8.316;2023-04-24T17:36:47;4.28;;;2.47;;
6185;SDS011;3126;52.738;8.316;2023-04-24T17:41:48;3.38;;;2.80;;
6185;SDS011;3126;52.738;8.316;2023-04-24T17:46:49;5.75;;;2.78;;
6185;SDS011;3126;52.738;8.316;2023-04-24T17:51:50;7.22;;;2.22;;
6185;SDS011;3126;52.738;8.316;2023-04-24T17:56:51;4.15;;;1.90;;
6185;SDS011;3126;52.738;8.316;2023-04-24T18:01:52;5.38;;;2.42;;
6185;SDS011;3126;52.738;8.316;2023-04-24T18:06:53;4.90;;;2.10;;
6185;SDS011;3126;52.738;8.316;2023-04-24T18:11:54;4.95;;;2.35;;
6185;SDS011;3126;52.738;8.316;2023-04-24T18:16:56;6.72;;;2.80;;
6185;SDS011;3126;52.738;8.316;2023-04-24T18:21:57;6.90;;;2.55;;
6185;SDS011;3126;52.738;8.316;2023-04-24T18:26:58;8.52;;;3.92;;
6185;SDS011;3126;52.738;8.316;2023-04-24T18:32:00;7.93;;;2.80;;
6185;SDS011;3126;52.738;8.316;2023-04-24T18:37:03;5.40;;;2.45;;
6185;SDS011;3126;52.738;8.316;2023-04-24T18:42:04;4.57;;;2.53;;
6185;SDS011;3126;52.738;8.316;2023-04-24T18:47:06;2.55;;;1.95;;
6185;SDS011;3126;52.738;8.316;2023-04-24T18:52:06;7.18;;;2.60;;
6185;SDS011;3126;52.738;8.316;2023-04-24T18:57:07;8.02;;;2.58;;
6185;SDS011;3126;52.738;8.316;2023-04-24T19:02:08;6.82;;;2.53;;
6185;SDS011;3126;52.738;8.316;2023-04-24T19:07:10;6.05;;;2.70;;
6185;SDS011;3126;52.738;8.316;2023-04-24T19:12:11;6.68;;;2.70;;
6185;SDS011;3126;52.738;8.316;2023-04-24T19:17:12;6.57;;;2.80;;
6185;SDS011;3126;52.738;8.316;2023-04-24T19:22:13;6.80;;;2.65;;
6185;SDS011;3126;52.738;8.316;2023-04-24T19:27:14;7.15;;;3.92;;
6185;SDS011;3126;52.738;8.316;2023-04-24T19:32:15;5.03;;;2.60;;
6185;SDS011;3126;52.738;8.316;2023-04-24T19:37:16;6.60;;;3.00;;
6185;SDS011;3126;52.738;8.316;2023-04-24T19:42:17;5.50;;;3.15;;
6185;SDS011;3126;52.738;8.316;2023-04-24T19:47:18;4.90;;;2.65;;
6185;SDS011;3126;52.738;8.316;2023-04-24T19:52:19;3.55;;;1.55;;
6185;SDS011;3126;52.738;8.316;2023-04-24T19:57:20;7.63;;;2.92;;
6185;SDS011;3126;52.738;8.316;2023-04-24T20:02:21;4.35;;;2.50;;
6185;SDS011;3126;52.738;8.316;2023-04-24T20:07:22;8.65;;;3.03;;
6185;SDS011;3126;52.738;8.316;2023-04-24T20:12:23;6.28;;;2.33;;
6185;SDS011;3126;52.738;8.316;2023-04-24T20:17:24;6.32;;;3.13;;
6185;SDS011;3126;52.738;8.316;2023-04-24T20:22:25;7.80;;;2.70;;
6185;SDS011;3126;52.738;8.316;2023-04-24T20:27:26;7.25;;;2.95;;
6185;SDS011;3126;52.738;8.316;2023-04-24T20:32:28;5.50;;;3.50;;
6185;SDS011;3126;52.738;8.316;2023-04-24T20:37:29;6.93;;;2.53;;
6185;SDS011;3126;52.738;8.316;2023-04-24T20:42:33;3.63;;;2.53;;
6185;SDS011;3126;52.738;8.316;2023-04-24T20:52:35;7.28;;;3.00;;
6185;SDS011;3126;52.738;8.316;2023-04-24T20:57:36;7.40;;;2.88;;
6185;SDS011;3126;52.738;8.316;2023-04-24T21:02:37;3.50;;;2.65;;
6185;SDS011;3126;52.738;8.316;2023-04-24T21:07:38;7.32;;;3.22;;
6185;SDS011;3126;52.738;8.316;2023-04-24T21:12:39;6.95;;;2.92;;
6185;SDS011;3126;52.738;8.316;2023-04-24T21:17:40;4.72;;;3.00;;
6185;SDS011;3126;52.738;8.316;2023-04-24T21:22:41;5.78;;;2.80;;
6185;SDS011;3126;52.738;8.316;2023-04-24T21:27:42;7.10;;;2.58;;
6185;SDS011;3126;52.738;8.316;2023-04-24T21:32:43;6.47;;;3.22;;
6185;SDS011;3126;52.738;8.316;2023-04-24T21:37:44;6.80;;;2.67;;
6185;SDS011;3126;52.738;8.316;2023-04-24T21:42:45;5.35;;;2.60;;
6185;SDS011;3126;52.738;8.316;2023-04-24T21:47:46;6.30;;;3.28;;
6185;SDS011;3126;52.738;8.316;2023-04-24T21:52:47;4.47;;;2.63;;
6185;SDS011;3126;52.738;8.316;2023-04-24T21:57:48;7.85;;;3.55;;
6185;SDS011;3126;52.738;8.316;2023-04-24T22:02:49;6.20;;;2.85;;
6185;SDS011;3126;52.738;8.316;2023-04-24T22:07:50;4.47;;;2.55;;
6185;SDS011;3126;52.738;8.316;2023-04-24T22:12:53;7.03;;;2.85;;
6185;SDS011;3126;52.738;8.316;2023-04-24T22:17:54;5.28;;;3.30;;
6185;SDS011;3126;52.738;8.316;2023-04-24T22:22:56;6.45;;;3.17;;
6185;SDS011;3126;52.738;8.316;2023-04-24T22:27:58;6.57;;;3.00;;
6185;SDS011;3126;52.738;8.316;2023-04-24T22:32:59;8.07;;;2.97;;
6185;SDS011;3126;52.738;8.316;2023-04-24T22:38:00;9.65;;;3.13;;
6185;SDS011;3126;52.738;8.316;2023-04-24T22:43:01;11.45;;;4.57;;
6185;SDS011;3126;52.738;8.316;2023-04-24T22:48:02;4.32;;;2.65;;
6185;SDS011;3126;52.738;8.316;2023-04-24T22:53:03;6.88;;;3.55;;
6185;SDS011;3126;52.738;8.316;2023-04-24T22:58:05;6.63;;;3.28;;
6185;SDS011;3126;52.738;8.316;2023-04-24T23:03:06;5.88;;;3.15;;
6185;SDS011;3126;52.738;8.316;2023-04-24T23:08:07;3.63;;;2.22;;
6185;SDS011;3126;52.738;8.316;2023-04-24T23:13:08;6.15;;;3.22;;
6185;SDS011;3126;52.738;8.316;2023-04-24T23:18:09;5.65;;;2.75;;
6185;SDS011;3126;52.738;8.316;2023-04-24T23:23:10;5.80;;;3.45;;
6185;SDS011;3126;52.738;8.316;2023-04-24T23:28:11;8.95;;;3.58;;
6185;SDS011;3126;52.738;8.316;2023-04-24T23:33:12;8.07;;;3.53;;
6185;SDS011;3126;52.738;8.316;2023-04-24T23:38:13;8.93;;;4.25;;
6185;SDS011;3126;52.738;8.316;2023-04-24T23:43:15;9.60;;;3.13;;
6185;SDS011;3126;52.738;8.316;2023-04-24T23:48:16;3.45;;;2.83;;
6185;SDS011;3126;52.738;8.316;2023-04-24T23:53:17;6.00;;;3.35;;
6185;SDS011;3126;52.738;8.316;2023-04-24T23:58:18;13.57;;;4.60;;
